sensor_id;sensor_type;location;lat;lon;timestamp;temperature;humidity
14277;DHT22;7222;57.346;12.150;2023-04-23T00:01:39;11.80;99.90
14277;DHT22;7222;57.346;12.150;2023-04-23T00:04:11;11.90;99.90
14277;DHT22;7222;57.346;12.150;2023-04-23T00:06:39;11.90;99.90
14277;DHT22;7222;57.346;12.150;2023-04-23T00:09:09;11.90;99.90
14277;DHT22;7222;57.346;12.150;2023-04-23T00:11:39;12.00;99.90
14277;DHT22;7222;57.346;12.150;2023-04-23T00:14:06;12.00;99.90
14277;DHT22;7222;57.346;12.150;2023-04-23T00:16:33;12.10;99.90
14277;DHT22;7222;57.346;12.150;2023-04-23T00:19:02;12.00;99.90
14277;DHT22;7222;57.346;12.150;2023-04-23T00:21:29;12.00;99.90
14277;DHT22;7222;57.346;12.150;2023-04-23T00:23:55;12.00;99.90
14277;DHT22;7222;57.346;12.150;2023-04-23T00:26:22;12.00;99.90
14277;DHT22;7222;57.346;12.150;2023-04-23T00:28:50;12.10;99.90
14277;DHT22;7222;57.346;12.150;2023-04-23T00:31:17;12.10;99.90
14277;DHT22;7222;57.346;12.150;2023-04-23T00:33:44;12.00;99.90
14277;DHT22;7222;57.346;12.150;2023-04-23T00:36:12;12.10;99.90
14277;DHT22;7222;57.346;12.150;2023-04-23T00:38:39;12.10;99.90
14277;DHT22;7222;57.346;12.150;2023-04-23T00:41:06;12.10;99.90
14277;DHT22;7222;57.346;12.150;2023-04-23T00:43:34;12.10;99.90
14277;DHT22;7222;57.346;12.150;2023-04-23T00:46:01;12.10;99.90
14277;DHT22;7222;57.346;12.150;2023-04-23T00:48:28;12.10;99.90
14277;DHT22;7222;57.346;12.150;2023-04-23T00:51:01;12.20;99.90
14277;DHT22;7222;57.346;12.150;2023-04-23T00:53:30;12.20;99.90
14277;DHT22;7222;57.346;12.150;2023-04-23T00:55:57;12.20;99.90
14277;DHT22;7222;57.346;12.150;2023-04-23T00:58:25;12.20;99.90
14277;DHT22;7222;57.346;12.150;2023-04-23T01:00:52;12.20;99.90
14277;DHT22;7222;57.346;12.150;2023-04-23T01:03:19;12.20;99.90
14277;DHT22;7222;57.346;12.150;2023-04-23T01:05:47;12.30;1.00
14277;DHT22;7222;57.346;12.150;2023-04-23T01:08:15;12.30;99.90
14277;DHT22;7222;57.346;12.150;2023-04-23T01:10:44;12.40;99.90
14277;DHT22;7222;57.346;12.150;2023-04-23T01:13:12;12.50;99.90
14277;DHT22;7222;57.346;12.150;2023-04-23T01:15:41;12.60;99.90
14277;DHT22;7222;57.346;12.150;2023-04-23T01:18:08;12.80;99.90
14277;DHT22;7222;57.346;12.150;2023-04-23T01:20:35;12.70;99.90
14277;DHT22;7222;57.346;12.150;2023-04-23T01:23:05;12.70;99.90
14277;DHT22;7222;57.346;12.150;2023-04-23T01:25:33;12.70;99.90
14277;DHT22;7222;57.346;12.150;2023-04-23T01:28:00;12.70;99.90
14277;DHT22;7222;57.346;12.150;2023-04-23T01:30:27;12.60;99.90
14277;DHT22;7222;57.346;12.150;2023-04-23T01:32:55;12.60;1.00
14277;DHT22;7222;57.346;12.150;2023-04-23T01:35:24;12.60;99.90
14277;DHT22;7222;57.346;12.150;2023-04-23T01:37:51;12.60;99.90
14277;DHT22;7222;57.346;12.150;2023-04-23T01:40:21;12.60;99.90
14277;DHT22;7222;57.346;12.150;2023-04-23T01:42:48;12.60;99.90
14277;DHT22;7222;57.346;12.150;2023-04-23T01:45:16;12.60;99.90
14277;DHT22;7222;57.346;12.150;2023-04-23T01:47:45;12.60;99.90
14277;DHT22;7222;57.346;12.150;2023-04-23T01:50:12;12.70;99.90
14277;DHT22;7222;57.346;12.150;2023-04-23T01:52:39;12.70;99.90
14277;DHT22;7222;57.346;12.150;2023-04-23T01:55:07;12.70;99.90
14277;DHT22;7222;57.346;12.150;2023-04-23T01:57:35;12.70;99.90
14277;DHT22;7222;57.346;12.150;2023-04-23T02:00:05;12.70;99.90
14277;DHT22;7222;57.346;12.150;2023-04-23T02:02:33;12.70;99.90
14277;DHT22;7222;57.346;12.150;2023-04-23T02:05:01;12.60;99.90
14277;DHT22;7222;57.346;12.150;2023-04-23T02:07:29;12.70;1.00
14277;DHT22;7222;57.346;12.150;2023-04-23T02:09:56;12.90;1.00
14277;DHT22;7222;57.346;12.150;2023-04-23T02:12:23;12.70;99.90
14277;DHT22;7222;57.346;12.150;2023-04-23T02:14:53;12.80;99.90
14277;DHT22;7222;57.346;12.150;2023-04-23T02:17:21;12.70;99.90
14277;DHT22;7222;57.346;12.150;2023-04-23T02:19:48;12.70;99.90
14277;DHT22;7222;57.346;12.150;2023-04-23T02:22:16;12.70;99.90
14277;DHT22;7222;57.346;12.150;2023-04-23T02:24:43;12.70;99.90
14277;DHT22;7222;57.346;12.150;2023-04-23T02:27:11;12.70;99.90
14277;DHT22;7222;57.346;12.150;2023-04-23T02:29:38;12.60;99.90
14277;DHT22;7222;57.346;12.150;2023-04-23T02:32:07;12.60;1.00
14277;DHT22;7222;57.346;12.150;2023-04-23T02:34:34;12.70;1.00
14277;DHT22;7222;57.346;12.150;2023-04-23T02:37:01;12.60;1.00
14277;DHT22;7222;57.346;12.150;2023-04-23T02:39:29;12.60;99.90
14277;DHT22;7222;57.346;12.150;2023-04-23T02:41:56;12.60;1.00
14277;DHT22;7222;57.346;12.150;2023-04-23T02:44:24;12.50;99.90
14277;DHT22;7222;57.346;12.150;2023-04-23T02:46:51;12.50;99.90
14277;DHT22;7222;57.346;12.150;2023-04-23T02:49:19;12.50;99.90
14277;DHT22;7222;57.346;12.150;2023-04-23T02:51:46;12.50;1.00
14277;DHT22;7222;57.346;12.150;2023-04-23T02:54:14;12.50;1.00
14277;DHT22;7222;57.346;12.150;2023-04-23T02:56:41;12.40;1.00
14277;DHT22;7222;57.346;12.150;2023-04-23T02:59:08;12.40;1.00
14277;DHT22;7222;57.346;12.150;2023-04-23T03:01:35;12.40;1.00
14277;DHT22;7222;57.346;12.150;2023-04-23T03:04:02;12.30;1.00
14277;DHT22;7222;57.346;12.150;2023-04-23T03:06:30;12.30;1.00
14277;DHT22;7222;57.346;12.150;2023-04-23T03:08:58;12.20;1.00
14277;DHT22;7222;57.346;12.150;2023-04-23T03:11:25;12.20;1.00
14277;DHT22;7222;57.346;12.150;2023-04-23T03:13:52;12.20;1.00
14277;DHT22;7222;57.346;12.150;2023-04-23T03:16:19;12.20;1.00
14277;DHT22;7222;57.346;12.150;2023-04-23T03:18:46;12.20;1.00
14277;DHT22;7222;57.346;12.150;2023-04-23T03:21:14;12.10;1.00
14277;DHT22;7222;57.346;12.150;2023-04-23T03:23:42;12.10;1.00
14277;DHT22;7222;57.346;12.150;2023-04-23T03:26:09;12.10;1.00
14277;DHT22;7222;57.346;12.150;2023-04-23T03:28:36;12.20;1.00
14277;DHT22;7222;57.346;12.150;2023-04-23T03:31:03;12.10;1.00
14277;DHT22;7222;57.346;12.150;2023-04-23T03:33:30;12.10;1.00
14277;DHT22;7222;57.346;12.150;2023-04-23T03:35:57;12.20;1.00
14277;DHT22;7222;57.346;12.150;2023-04-23T03:38:24;12.10;1.00
14277;DHT22;7222;57.346;12.150;2023-04-23T03:40:52;12.10;1.00
14277;DHT22;7222;57.346;12.150;2023-04-23T03:43:19;12.10;1.00
14277;DHT22;7222;57.346;12.150;2023-04-23T03:45:46;12.00;1.00
14277;DHT22;7222;57.346;12.150;2023-04-23T03:48:12;12.00;1.00
14277;DHT22;7222;57.346;12.150;2023-04-23T03:50:40;12.00;1.00
14277;DHT22;7222;57.346;12.150;2023-04-23T03:53:07;11.90;1.00
14277;DHT22;7222;57.346;12.150;2023-04-23T03:55:35;11.90;1.00
14277;DHT22;7222;57.346;12.150;2023-04-23T03:58:04;11.90;1.00
14277;DHT22;7222;57.346;12.150;2023-04-23T04:00:31;11.90;1.00
14277;DHT22;7222;57.346;12.150;2023-04-23T04:02:58;11.80;1.00
14277;DHT22;7222;57.346;12.150;2023-04-23T04:05:26;11.90;1.00
14277;DHT22;7222;57.346;12.150;2023-04-23T04:07:53;11.90;1.00
14277;DHT22;7222;57.346;12.150;2023-04-23T04:10:20;11.80;1.00
14277;DHT22;7222;57.346;12.150;2023-04-23T04:12:47;11.90;1.00
14277;DHT22;7222;57.346;12.150;2023-04-23T04:15:16;11.90;1.00
14277;DHT22;7222;57.346;12.150;2023-04-23T04:17:44;12.10;1.00
14277;DHT22;7222;57.346;12.150;2023-04-23T04:20:11;12.20;1.00
14277;DHT22;7222;57.346;12.150;2023-04-23T04:22:38;12.20;1.00
14277;DHT22;7222;57.346;12.150;2023-04-23T04:25:06;12.30;1.00
14277;DHT22;7222;57.346;12.150;2023-04-23T04:27:34;12.40;1.00
14277;DHT22;7222;57.346;12.150;2023-04-23T04:30:02;12.50;1.00
14277;DHT22;7222;57.346;12.150;2023-04-23T04:32:31;12.60;1.00
14277;DHT22;7222;57.346;12.150;2023-04-23T04:34:58;12.70;1.00
14277;DHT22;7222;57.346;12.150;2023-04-23T04:37:27;12.70;1.00
14277;DHT22;7222;57.346;12.150;2023-04-23T04:39:53;12.80;1.00
14277;DHT22;7222;57.346;12.150;2023-04-23T04:42:20;12.80;1.00
14277;DHT22;7222;57.346;12.150;2023-04-23T04:44:49;12.80;1.00
14277;DHT22;7222;57.346;12.150;2023-04-23T04:47:17;12.90;1.00
14277;DHT22;7222;57.346;12.150;2023-04-23T04:49:46;13.00;1.00
14277;DHT22;7222;57.346;12.150;2023-04-23T04:52:13;13.00;1.00
14277;DHT22;7222;57.346;12.150;2023-04-23T04:54:40;13.00;1.00
14277;DHT22;7222;57.346;12.150;2023-04-23T04:57:07;12.90;1.00
14277;DHT22;7222;57.346;12.150;2023-04-23T04:59:34;12.80;1.00
14277;DHT22;7222;57.346;12.150;2023-04-23T05:02:01;12.40;1.10
14277;DHT22;7222;57.346;12.150;2023-04-23T05:04:28;12.00;99.90
14277;DHT22;7222;57.346;12.150;2023-04-23T05:06:56;11.80;1.00
14277;DHT22;7222;57.346;12.150;2023-04-23T05:09:24;11.70;42.50
14277;DHT22;7222;57.346;12.150;2023-04-23T05:11:51;11.70;99.90
14277;DHT22;7222;57.346;12.150;2023-04-23T05:14:18;11.60;99.90
14277;DHT22;7222;57.346;12.150;2023-04-23T05:16:45;11.60;99.90
14277;DHT22;7222;57.346;12.150;2023-04-23T05:19:12;11.60;99.90
14277;DHT22;7222;57.346;12.150;2023-04-23T05:21:39;11.60;1.00
14277;DHT22;7222;57.346;12.150;2023-04-23T05:24:08;11.50;1.00
14277;DHT22;7222;57.346;12.150;2023-04-23T05:26:35;11.40;99.90
14277;DHT22;7222;57.346;12.150;2023-04-23T05:29:02;11.30;1.00
14277;DHT22;7222;57.346;12.150;2023-04-23T05:31:30;11.30;1.00
14277;DHT22;7222;57.346;12.150;2023-04-23T05:33:58;11.20;99.90
14277;DHT22;7222;57.346;12.150;2023-04-23T05:36:25;11.10;1.00
14277;DHT22;7222;57.346;12.150;2023-04-23T05:38:52;11.00;99.90
14277;DHT22;7222;57.346;12.150;2023-04-23T05:41:20;10.90;99.90
14277;DHT22;7222;57.346;12.150;2023-04-23T05:43:47;10.90;1.00
14277;DHT22;7222;57.346;12.150;2023-04-23T05:46:14;10.90;1.00
14277;DHT22;7222;57.346;12.150;2023-04-23T05:48:41;10.90;1.00
14277;DHT22;7222;57.346;12.150;2023-04-23T05:51:08;10.90;99.90
14277;DHT22;7222;57.346;12.150;2023-04-23T05:53:35;10.90;99.90
14277;DHT22;7222;57.346;12.150;2023-04-23T05:56:02;10.80;1.00
14277;DHT22;7222;57.346;12.150;2023-04-23T05:58:31;10.80;1.00
14277;DHT22;7222;57.346;12.150;2023-04-23T06:00:58;10.80;1.00
14277;DHT22;7222;57.346;12.150;2023-04-23T06:03:24;10.70;1.00
14277;DHT22;7222;57.346;12.150;2023-04-23T06:05:51;10.70;99.90
14277;DHT22;7222;57.346;12.150;2023-04-23T06:08:18;10.70;99.90
14277;DHT22;7222;57.346;12.150;2023-04-23T06:10:46;10.60;87.20
14277;DHT22;7222;57.346;12.150;2023-04-23T06:13:12;10.60;99.90
14277;DHT22;7222;57.346;12.150;2023-04-23T06:15:41;10.50;99.90
14277;DHT22;7222;57.346;12.150;2023-04-23T06:18:07;10.50;1.00
14277;DHT22;7222;57.346;12.150;2023-04-23T06:20:34;10.50;1.00
14277;DHT22;7222;57.346;12.150;2023-04-23T06:23:02;10.60;99.90
14277;DHT22;7222;57.346;12.150;2023-04-23T06:25:29;10.50;99.90
14277;DHT22;7222;57.346;12.150;2023-04-23T06:27:55;10.50;99.90
14277;DHT22;7222;57.346;12.150;2023-04-23T06:30:23;10.50;99.90
14277;DHT22;7222;57.346;12.150;2023-04-23T06:32:52;10.50;99.90
14277;DHT22;7222;57.346;12.150;2023-04-23T06:35:19;10.40;99.90
14277;DHT22;7222;57.346;12.150;2023-04-23T06:37:46;10.30;99.90
14277;DHT22;7222;57.346;12.150;2023-04-23T06:40:13;10.20;99.90
14277;DHT22;7222;57.346;12.150;2023-04-23T06:42:40;10.10;99.90
14277;DHT22;7222;57.346;12.150;2023-04-23T06:45:08;10.10;99.90
14277;DHT22;7222;57.346;12.150;2023-04-23T06:47:35;10.10;99.90
14277;DHT22;7222;57.346;12.150;2023-04-23T06:50:05;10.00;99.90
14277;DHT22;7222;57.346;12.150;2023-04-23T06:52:33;10.00;99.90
14277;DHT22;7222;57.346;12.150;2023-04-23T06:55:00;10.00;99.90
14277;DHT22;7222;57.346;12.150;2023-04-23T06:57:27;10.00;99.90
14277;DHT22;7222;57.346;12.150;2023-04-23T06:59:54;10.10;99.90
14277;DHT22;7222;57.346;12.150;2023-04-23T07:02:21;10.20;99.90
14277;DHT22;7222;57.346;12.150;2023-04-23T07:04:48;10.10;99.90
14277;DHT22;7222;57.346;12.150;2023-04-23T07:07:17;10.00;99.90
14277;DHT22;7222;57.346;12.150;2023-04-23T07:09:44;10.10;99.90
14277;DHT22;7222;57.346;12.150;2023-04-23T07:12:11;10.10;99.90
14277;DHT22;7222;57.346;12.150;2023-04-23T07:14:38;10.10;99.90
14277;DHT22;7222;57.346;12.150;2023-04-23T07:17:05;10.10;99.90
14277;DHT22;7222;57.346;12.150;2023-04-23T07:19:32;10.20;99.90
14277;DHT22;7222;57.346;12.150;2023-04-23T07:21:59;10.20;99.90
14277;DHT22;7222;57.346;12.150;2023-04-23T07:24:27;10.20;99.90
14277;DHT22;7222;57.346;12.150;2023-04-23T07:26:54;10.20;99.90
14277;DHT22;7222;57.346;12.150;2023-04-23T07:29:21;10.20;99.90
14277;DHT22;7222;57.346;12.150;2023-04-23T07:31:48;10.30;99.90
14277;DHT22;7222;57.346;12.150;2023-04-23T07:34:15;10.30;99.90
14277;DHT22;7222;57.346;12.150;2023-04-23T07:36:42;10.30;99.90
14277;DHT22;7222;57.346;12.150;2023-04-23T07:39:09;10.30;99.90
14277;DHT22;7222;57.346;12.150;2023-04-23T07:41:37;10.40;99.90
14277;DHT22;7222;57.346;12.150;2023-04-23T07:44:04;10.40;99.90
14277;DHT22;7222;57.346;12.150;2023-04-23T07:46:31;10.50;99.90
14277;DHT22;7222;57.346;12.150;2023-04-23T07:48:58;10.50;99.90
14277;DHT22;7222;57.346;12.150;2023-04-23T07:51:25;10.70;99.90
14277;DHT22;7222;57.346;12.150;2023-04-23T07:53:53;10.70;99.90
14277;DHT22;7222;57.346;12.150;2023-04-23T07:56:21;10.70;99.90
14277;DHT22;7222;57.346;12.150;2023-04-23T07:58:50;10.80;99.90
14277;DHT22;7222;57.346;12.150;2023-04-23T08:01:18;10.70;99.90
14277;DHT22;7222;57.346;12.150;2023-04-23T08:03:46;10.80;99.90
14277;DHT22;7222;57.346;12.150;2023-04-23T08:06:13;10.80;99.90
14277;DHT22;7222;57.346;12.150;2023-04-23T08:08:39;10.80;99.90
14277;DHT22;7222;57.346;12.150;2023-04-23T08:11:07;10.80;99.90
14277;DHT22;7222;57.346;12.150;2023-04-23T08:13:33;10.90;99.90
14277;DHT22;7222;57.346;12.150;2023-04-23T08:16:02;10.90;99.90
14277;DHT22;7222;57.346;12.150;2023-04-23T08:18:29;10.90;99.90
14277;DHT22;7222;57.346;12.150;2023-04-23T08:20:56;11.00;99.90
14277;DHT22;7222;57.346;12.150;2023-04-23T08:23:24;11.00;99.90
14277;DHT22;7222;57.346;12.150;2023-04-23T08:25:51;11.10;99.90
14277;DHT22;7222;57.346;12.150;2023-04-23T08:28:18;11.10;99.90
14277;DHT22;7222;57.346;12.150;2023-04-23T08:30:45;11.10;99.90
14277;DHT22;7222;57.346;12.150;2023-04-23T08:33:13;11.30;99.90
14277;DHT22;7222;57.346;12.150;2023-04-23T08:35:40;11.30;99.90
14277;DHT22;7222;57.346;12.150;2023-04-23T08:38:07;11.30;99.90
14277;DHT22;7222;57.346;12.150;2023-04-23T08:40:35;11.30;99.90
14277;DHT22;7222;57.346;12.150;2023-04-23T08:43:07;11.10;99.90
14277;DHT22;7222;57.346;12.150;2023-04-23T08:45:35;11.20;99.90
14277;DHT22;7222;57.346;12.150;2023-04-23T08:48:06;11.20;99.90
14277;DHT22;7222;57.346;12.150;2023-04-23T08:50:37;11.40;99.90
14277;DHT22;7222;57.346;12.150;2023-04-23T08:53:07;11.20;99.90
14277;DHT22;7222;57.346;12.150;2023-04-23T08:55:35;11.30;99.90
14277;DHT22;7222;57.346;12.150;2023-04-23T08:58:03;11.40;99.90
14277;DHT22;7222;57.346;12.150;2023-04-23T09:00:31;11.50;99.90
14277;DHT22;7222;57.346;12.150;2023-04-23T09:02:59;11.60;99.90
14277;DHT22;7222;57.346;12.150;2023-04-23T09:05:26;11.60;99.90
14277;DHT22;7222;57.346;12.150;2023-04-23T09:07:56;11.40;99.90
14277;DHT22;7222;57.346;12.150;2023-04-23T09:10:23;11.30;99.90
14277;DHT22;7222;57.346;12.150;2023-04-23T09:12:50;11.20;99.90
14277;DHT22;7222;57.346;12.150;2023-04-23T09:15:17;11.20;99.90
14277;DHT22;7222;57.346;12.150;2023-04-23T09:17:45;11.20;99.90
14277;DHT22;7222;57.346;12.150;2023-04-23T09:20:13;11.40;99.90
14277;DHT22;7222;57.346;12.150;2023-04-23T09:22:41;11.40;99.90
14277;DHT22;7222;57.346;12.150;2023-04-23T09:25:11;11.50;99.90
14277;DHT22;7222;57.346;12.150;2023-04-23T09:27:38;11.60;99.90
14277;DHT22;7222;57.346;12.150;2023-04-23T09:30:07;11.60;99.90
14277;DHT22;7222;57.346;12.150;2023-04-23T09:32:36;11.50;99.90
14277;DHT22;7222;57.346;12.150;2023-04-23T09:35:05;11.80;99.90
14277;DHT22;7222;57.346;12.150;2023-04-23T09:37:32;11.70;99.90
14277;DHT22;7222;57.346;12.150;2023-04-23T09:40:00;11.70;99.90
14277;DHT22;7222;57.346;12.150;2023-04-23T09:42:31;11.60;99.90
14277;DHT22;7222;57.346;12.150;2023-04-23T09:45:01;11.60;99.90
14277;DHT22;7222;57.346;12.150;2023-04-23T09:47:31;11.50;99.90
14277;DHT22;7222;57.346;12.150;2023-04-23T09:49:58;11.50;99.90
14277;DHT22;7222;57.346;12.150;2023-04-23T09:52:25;11.50;99.90
14277;DHT22;7222;57.346;12.150;2023-04-23T09:54:55;11.40;99.90
14277;DHT22;7222;57.346;12.150;2023-04-23T09:57:23;11.40;99.90
14277;DHT22;7222;57.346;12.150;2023-04-23T09:59:55;11.50;99.90
14277;DHT22;7222;57.346;12.150;2023-04-23T10:02:26;11.30;99.90
14277;DHT22;7222;57.346;12.150;2023-04-23T10:04:53;11.50;99.90
14277;DHT22;7222;57.346;12.150;2023-04-23T10:07:21;11.50;99.90
14277;DHT22;7222;57.346;12.150;2023-04-23T10:09:48;11.60;99.90
14277;DHT22;7222;57.346;12.150;2023-04-23T10:12:16;11.70;99.90
14277;DHT22;7222;57.346;12.150;2023-04-23T10:14:45;11.70;99.90
14277;DHT22;7222;57.346;12.150;2023-04-23T10:17:15;11.50;99.90
14277;DHT22;7222;57.346;12.150;2023-04-23T10:19:43;11.80;99.90
14277;DHT22;7222;57.346;12.150;2023-04-23T10:22:10;12.10;99.90
14277;DHT22;7222;57.346;12.150;2023-04-23T10:24:39;12.00;99.90
14277;DHT22;7222;57.346;12.150;2023-04-23T10:27:10;11.90;99.90
14277;DHT22;7222;57.346;12.150;2023-04-23T10:29:37;12.00;99.90
14277;DHT22;7222;57.346;12.150;2023-04-23T10:32:06;12.10;99.90
14277;DHT22;7222;57.346;12.150;2023-04-23T10:34:35;12.20;99.90
14277;DHT22;7222;57.346;12.150;2023-04-23T10:37:02;12.40;99.90
14277;DHT22;7222;57.346;12.150;2023-04-23T10:39:31;12.40;99.90
14277;DHT22;7222;57.346;12.150;2023-04-23T10:41:59;12.20;99.90
14277;DHT22;7222;57.346;12.150;2023-04-23T10:44:35;12.40;99.90
14277;DHT22;7222;57.346;12.150;2023-04-23T10:47:03;12.30;99.90
14277;DHT22;7222;57.346;12.150;2023-04-23T10:49:31;12.00;99.90
14277;DHT22;7222;57.346;12.150;2023-04-23T10:52:01;11.80;99.90
14277;DHT22;7222;57.346;12.150;2023-04-23T10:54:29;12.00;99.90
14277;DHT22;7222;57.346;12.150;2023-04-23T10:56:59;12.10;99.90
14277;DHT22;7222;57.346;12.150;2023-04-23T10:59:28;12.40;99.90
14277;DHT22;7222;57.346;12.150;2023-04-23T11:01:56;12.70;99.90
14277;DHT22;7222;57.346;12.150;2023-04-23T11:04:55;12.60;99.90
14277;DHT22;7222;57.346;12.150;2023-04-23T11:07:25;12.30;99.90
14277;DHT22;7222;57.346;12.150;2023-04-23T11:09:58;12.50;99.90
14277;DHT22;7222;57.346;12.150;2023-04-23T11:12:32;12.40;99.90
14277;DHT22;7222;57.346;12.150;2023-04-23T11:15:00;12.20;99.90
14277;DHT22;7222;57.346;12.150;2023-04-23T11:17:59;12.20;99.90
14277;DHT22;7222;57.346;12.150;2023-04-23T11:20:28;11.80;99.90
14277;DHT22;7222;57.346;12.150;2023-04-23T11:22:55;11.30;99.90
14277;DHT22;7222;57.346;12.150;2023-04-23T11:25:23;11.40;99.90
14277;DHT22;7222;57.346;12.150;2023-04-23T11:27:53;11.70;99.90
14277;DHT22;7222;57.346;12.150;2023-04-23T11:30:22;11.80;99.90
14277;DHT22;7222;57.346;12.150;2023-04-23T11:32:51;11.60;99.90
14277;DHT22;7222;57.346;12.150;2023-04-23T11:35:19;11.80;99.90
14277;DHT22;7222;57.346;12.150;2023-04-23T11:37:48;12.00;99.90
14277;DHT22;7222;57.346;12.150;2023-04-23T11:40:18;11.90;99.90
14277;DHT22;7222;57.346;12.150;2023-04-23T11:42:46;12.20;99.90
14277;DHT22;7222;57.346;12.150;2023-04-23T11:45:15;11.70;99.90
14277;DHT22;7222;57.346;12.150;2023-04-23T11:47:43;11.70;99.90
14277;DHT22;7222;57.346;12.150;2023-04-23T11:50:16;11.40;99.90
14277;DHT22;7222;57.346;12.150;2023-04-23T11:52:43;11.50;99.90
14277;DHT22;7222;57.346;12.150;2023-04-23T11:55:12;11.70;99.90
14277;DHT22;7222;57.346;12.150;2023-04-23T11:57:42;12.10;99.90
14277;DHT22;7222;57.346;12.150;2023-04-23T12:00:13;12.20;99.90
14277;DHT22;7222;57.346;12.150;2023-04-23T12:02:50;11.90;99.90
14277;DHT22;7222;57.346;12.150;2023-04-23T12:05:19;11.60;99.90
14277;DHT22;7222;57.346;12.150;2023-04-23T12:07:48;11.90;99.90
14277;DHT22;7222;57.346;12.150;2023-04-23T12:10:19;11.90;99.90
14277;DHT22;7222;57.346;12.150;2023-04-23T12:12:50;11.90;99.90
14277;DHT22;7222;57.346;12.150;2023-04-23T12:15:17;11.60;99.90
14277;DHT22;7222;57.346;12.150;2023-04-23T12:17:47;11.80;99.90
14277;DHT22;7222;57.346;12.150;2023-04-23T12:20:17;11.80;99.90
14277;DHT22;7222;57.346;12.150;2023-04-23T12:22:44;11.80;99.90
14277;DHT22;7222;57.346;12.150;2023-04-23T12:25:11;11.60;99.90
14277;DHT22;7222;57.346;12.150;2023-04-23T12:27:40;11.60;99.90
14277;DHT22;7222;57.346;12.150;2023-04-23T12:30:09;11.80;99.90
14277;DHT22;7222;57.346;12.150;2023-04-23T12:32:37;11.50;99.90
14277;DHT22;7222;57.346;12.150;2023-04-23T12:35:04;11.60;99.90
14277;DHT22;7222;57.346;12.150;2023-04-23T12:37:35;11.50;99.90
14277;DHT22;7222;57.346;12.150;2023-04-23T12:40:03;11.40;99.90
14277;DHT22;7222;57.346;12.150;2023-04-23T12:42:32;11.20;99.90
14277;DHT22;7222;57.346;12.150;2023-04-23T12:45:06;11.40;99.90
14277;DHT22;7222;57.346;12.150;2023-04-23T12:47:34;11.30;99.90
14277;DHT22;7222;57.346;12.150;2023-04-23T12:50:01;11.40;99.90
14277;DHT22;7222;57.346;12.150;2023-04-23T12:52:30;11.00;99.90
14277;DHT22;7222;57.346;12.150;2023-04-23T12:54:57;11.30;99.90
14277;DHT22;7222;57.346;12.150;2023-04-23T12:57:25;11.50;99.90
14277;DHT22;7222;57.346;12.150;2023-04-23T12:59:53;11.30;99.90
14277;DHT22;7222;57.346;12.150;2023-04-23T13:02:23;11.50;99.90
14277;DHT22;7222;57.346;12.150;2023-04-23T13:04:50;11.60;99.90
14277;DHT22;7222;57.346;12.150;2023-04-23T13:07:19;11.60;99.90
14277;DHT22;7222;57.346;12.150;2023-04-23T13:09:46;11.80;99.90
14277;DHT22;7222;57.346;12.150;2023-04-23T13:12:13;11.50;99.90
14277;DHT22;7222;57.346;12.150;2023-04-23T13:14:40;11.50;99.90
14277;DHT22;7222;57.346;12.150;2023-04-23T13:17:07;11.70;99.90
14277;DHT22;7222;57.346;12.150;2023-04-23T13:19:35;11.90;99.90
14277;DHT22;7222;57.346;12.150;2023-04-23T13:22:04;11.60;99.90
14277;DHT22;7222;57.346;12.150;2023-04-23T13:24:31;11.50;99.90
14277;DHT22;7222;57.346;12.150;2023-04-23T13:26:58;11.50;99.90
14277;DHT22;7222;57.346;12.150;2023-04-23T13:29:26;11.60;99.90
14277;DHT22;7222;57.346;12.150;2023-04-23T13:31:53;11.40;99.90
14277;DHT22;7222;57.346;12.150;2023-04-23T13:34:20;11.40;99.90
14277;DHT22;7222;57.346;12.150;2023-04-23T13:36:49;11.20;99.90
14277;DHT22;7222;57.346;12.150;2023-04-23T13:39:16;11.20;99.90
14277;DHT22;7222;57.346;12.150;2023-04-23T13:41:44;11.20;99.90
14277;DHT22;7222;57.346;12.150;2023-04-23T13:44:11;11.50;99.90
14277;DHT22;7222;57.346;12.150;2023-04-23T13:46:38;11.50;99.90
14277;DHT22;7222;57.346;12.150;2023-04-23T13:49:05;11.50;99.90
14277;DHT22;7222;57.346;12.150;2023-04-23T13:51:33;11.70;99.90
14277;DHT22;7222;57.346;12.150;2023-04-23T13:54:01;11.80;99.90
14277;DHT22;7222;57.346;12.150;2023-04-23T13:56:28;11.80;99.90
14277;DHT22;7222;57.346;12.150;2023-04-23T13:58:56;12.00;99.90
14277;DHT22;7222;57.346;12.150;2023-04-23T14:01:27;12.00;99.90
14277;DHT22;7222;57.346;12.150;2023-04-23T14:03:54;12.00;99.90
14277;DHT22;7222;57.346;12.150;2023-04-23T14:06:21;12.10;99.90
14277;DHT22;7222;57.346;12.150;2023-04-23T14:08:48;11.70;99.90
14277;DHT22;7222;57.346;12.150;2023-04-23T14:11:17;11.80;99.90
14277;DHT22;7222;57.346;12.150;2023-04-23T14:13:44;11.90;99.90
14277;DHT22;7222;57.346;12.150;2023-04-23T14:16:11;11.90;99.90
14277;DHT22;7222;57.346;12.150;2023-04-23T14:18:37;11.80;99.90
14277;DHT22;7222;57.346;12.150;2023-04-23T14:21:06;12.00;99.90
14277;DHT22;7222;57.346;12.150;2023-04-23T14:23:44;11.90;99.90
14277;DHT22;7222;57.346;12.150;2023-04-23T14:26:26;12.10;99.90
14277;DHT22;7222;57.346;12.150;2023-04-23T14:28:56;12.30;99.90
14277;DHT22;7222;57.346;12.150;2023-04-23T14:31:23;12.30;99.90
14277;DHT22;7222;57.346;12.150;2023-04-23T14:33:50;12.10;99.90
14277;DHT22;7222;57.346;12.150;2023-04-23T14:36:17;12.10;99.90
14277;DHT22;7222;57.346;12.150;2023-04-23T14:38:44;11.90;99.90
14277;DHT22;7222;57.346;12.150;2023-04-23T14:41:11;12.20;99.90
14277;DHT22;7222;57.346;12.150;2023-04-23T14:43:40;12.10;99.90
14277;DHT22;7222;57.346;12.150;2023-04-23T14:46:07;12.00;99.90
14277;DHT22;7222;57.346;12.150;2023-04-23T14:48:33;12.00;99.90
14277;DHT22;7222;57.346;12.150;2023-04-23T14:51:01;12.10;99.90
14277;DHT22;7222;57.346;12.150;2023-04-23T14:53:28;12.40;99.90
14277;DHT22;7222;57.346;12.150;2023-04-23T14:55:55;12.50;99.90
14277;DHT22;7222;57.346;12.150;2023-04-23T14:58:22;12.40;99.90
14277;DHT22;7222;57.346;12.150;2023-04-23T15:00:50;12.60;99.90
14277;DHT22;7222;57.346;12.150;2023-04-23T15:03:17;13.00;99.90
14277;DHT22;7222;57.346;12.150;2023-04-23T15:05:44;12.80;99.90
14277;DHT22;7222;57.346;12.150;2023-04-23T15:08:11;12.60;99.90
14277;DHT22;7222;57.346;12.150;2023-04-23T15:10:38;12.90;99.90
14277;DHT22;7222;57.346;12.150;2023-04-23T15:13:34;12.80;99.90
14277;DHT22;7222;57.346;12.150;2023-04-23T15:16:07;12.90;99.90
14277;DHT22;7222;57.346;12.150;2023-04-23T15:18:42;13.40;99.90
14277;DHT22;7222;57.346;12.150;2023-04-23T15:21:09;13.70;28.10
14277;DHT22;7222;57.346;12.150;2023-04-23T15:23:36;13.00;99.90
14277;DHT22;7222;57.346;12.150;2023-04-23T15:26:05;12.70;1.00
14277;DHT22;7222;57.346;12.150;2023-04-23T15:28:33;12.60;99.90
14277;DHT22;7222;57.346;12.150;2023-04-23T15:31:00;13.00;99.90
14277;DHT22;7222;57.346;12.150;2023-04-23T15:33:28;13.40;23.20
14277;DHT22;7222;57.346;12.150;2023-04-23T15:35:56;13.70;99.90
14277;DHT22;7222;57.346;12.150;2023-04-23T15:38:22;13.90;1.00
14277;DHT22;7222;57.346;12.150;2023-04-23T15:40:50;13.40;99.90